Time;durP1;ratioP1;P1;durP2;ratioP2;P2;SDS_P1;SDS_P2;PMS_P1;PMS_P2;Temp;Humidity;BMP_temperature;BMP_pressure;BME280_temperature;BME280_humidity;BME280_pressure;Samples;Min_cycle;Max_cycle;Signal;HPM_P1;HPM_P2
2020/12/18 00:01:07;;;;;;;2.77;2.50;;;19.60;28.10;;;;;;5076391;28;20613;-53
2020/12/18 00:03:33;;;;;;;2.50;2.30;;;19.60;28.10;;;;;;5075979;28;20375;-53
2020/12/18 00:05:58;;;;;;;3.03;2.40;;;19.60;28.10;;;;;;5076270;28;20223;-53
2020/12/18 00:08:24;;;;;;;4.33;2.97;;;19.60;28.10;;;;;;5075536;28;20249;-53
2020/12/18 00:10:53;;;;;;;3.27;2.70;;;19.60;28.10;;;;;;5076072;28;20193;-52
2020/12/18 00:13:18;;;;;;;4.05;2.35;;;19.60;28.20;;;;;;5076095;28;20166;-52
2020/12/18 00:15:44;;;;;;;2.70;2.50;;;19.60;28.10;;;;;;5075906;28;20150;-52
2020/12/18 00:18:09;;;;;;;3.10;2.80;;;19.60;28.20;;;;;;5057829;28;20755;-52
2020/12/18 00:20:35;;;;;;;2.73;2.03;;;19.60;28.20;;;;;;5075889;28;20652;-52
2020/12/18 00:23:01;;;;;;;2.30;2.10;;;19.60;28.20;;;;;;5075432;28;20224;-52
2020/12/18 00:25:27;;;;;;;3.40;3.10;;;19.60;28.20;;;;;;5075843;28;20776;-52
2020/12/18 00:27:52;;;;;;;2.53;2.30;;;19.60;28.20;;;;;;5075515;28;20589;-52
2020/12/18 00:30:18;;;;;;;3.13;2.80;;;19.60;28.20;;;;;;5075719;28;20190;-52
2020/12/18 00:32:43;;;;;;;2.53;2.33;;;19.60;28.20;;;;;;5075396;28;20652;-52
2020/12/18 00:35:11;;;;;;;3.33;2.60;;;19.60;28.20;;;;;;5075600;28;20159;-52
2020/12/18 00:37:37;;;;;;;2.95;2.65;;;19.60;28.20;;;;;;5074934;28;20147;-52
2020/12/18 00:40:05;;;;;;;2.85;2.65;;;19.60;28.20;;;;;;5075542;28;20167;-52
2020/12/18 00:42:31;;;;;;;2.33;2.13;;;19.60;28.20;;;;;;5075339;28;20166;-52
2020/12/18 00:44:57;;;;;;;2.43;2.23;;;19.60;28.80;;;;;;5075548;28;20154;-52
2020/12/18 00:47:23;;;;;;;2.90;2.70;;;19.60;28.30;;;;;;5075117;28;20405;-52
2020/12/18 00:49:48;;;;;;;2.60;2.40;;;19.60;28.30;;;;;;5075035;28;20434;-52
2020/12/18 00:52:14;;;;;;;3.17;2.87;;;19.60;28.30;;;;;;5074724;28;20966;-52
2020/12/18 00:54:40;;;;;;;2.57;2.37;;;19.60;28.30;;;;;;5057200;28;20613;-52
2020/12/18 00:57:05;;;;;;;2.53;2.33;;;19.60;28.20;;;;;;5075204;28;20162;-52
2020/12/18 00:59:31;;;;;;;2.20;2.00;;;19.60;28.30;;;;;;5074354;28;20245;-52
2020/12/18 01:01:58;;;;;;;2.10;2.00;;;19.60;28.30;;;;;;5074743;28;20166;-53
2020/12/18 01:04:23;;;;;;;3.05;2.75;;;19.60;28.30;;;;;;5074966;28;20162;-52
2020/12/18 01:06:54;;;;;;;2.80;2.33;;;19.60;28.30;;;;;;5057149;28;20276;-53
2020/12/18 01:09:24;;;;;;;2.90;2.60;;;19.60;28.30;;;;;;5075016;28;20167;-52
2020/12/18 01:11:53;;;;;;;2.30;2.10;;;19.60;28.80;;;;;;5074927;28;20154;-52
2020/12/18 01:14:22;;;;;;;2.38;2.17;;;19.50;28.30;;;;;;5074894;28;20158;-52
2020/12/18 01:16:54;;;;;;;3.42;3.13;;;19.60;28.30;;;;;;5090085;28;20186;-52
2020/12/18 01:19:20;;;;;;;2.75;2.55;;;19.50;28.30;;;;;;5074761;28;20163;-53
2020/12/18 01:21:53;;;;;;;2.08;1.90;;;19.50;28.30;;;;;;5074768;28;20205;-52
2020/12/18 01:24:19;;;;;;;2.50;2.30;;;19.50;28.30;;;;;;5074550;28;20181;-52
2020/12/18 01:26:46;;;;;;;2.70;2.50;;;19.50;28.30;;;;;;5074905;28;20159;-53
2020/12/18 01:29:12;;;;;;;2.38;2.10;;;19.50;28.30;;;;;;5074364;28;20462;-53
2020/12/18 01:31:38;;;;;;;3.47;3.00;;;19.50;28.30;;;;;;5074360;28;20597;-53
2020/12/18 01:34:03;;;;;;;2.90;2.47;;;19.50;28.30;;;;;;5074421;28;20609;-53
2020/12/18 01:36:29;;;;;;;2.53;2.33;;;19.50;28.30;;;;;;5074394;28;20165;-53
2020/12/18 01:38:55;;;;;;;3.00;2.50;;;19.50;28.30;;;;;;5074096;28;20167;-52
2020/12/18 01:41:24;;;;;;;2.67;2.30;;;19.50;28.30;;;;;;5056751;28;20866;-53
2020/12/18 01:43:52;;;;;;;3.53;2.55;;;19.50;28.30;;;;;;5074359;28;20167;-52
2020/12/18 01:46:20;;;;;;;2.47;2.20;;;19.50;28.30;;;;;;5074177;28;20516;-51
2020/12/18 01:48:46;;;;;;;3.30;3.00;;;19.50;28.30;;;;;;5074172;28;20187;-52
2020/12/18 01:51:13;;;;;;;2.40;2.20;;;19.50;28.80;;;;;;5073942;28;20178;-53
2020/12/18 01:53:40;;;;;;;2.90;2.70;;;19.50;28.30;;;;;;5089619;28;20240;-53
2020/12/18 01:56:07;;;;;;;2.22;2.05;;;19.50;28.30;;;;;;5089626;28;20158;-52
2020/12/18 01:58:34;;;;;;;2.75;2.55;;;19.50;28.30;;;;;;5073906;28;20170;-53
2020/12/18 02:01:05;;;;;;;2.78;2.58;;;19.50;28.30;;;;;;5074039;28;20165;-52
2020/12/18 02:03:31;;;;;;;2.67;2.47;;;19.50;28.30;;;;;;5073924;28;20157;-53
2020/12/18 02:06:02;;;;;;;3.17;2.90;;;19.50;28.30;;;;;;5074092;28;20220;-52
2020/12/18 02:08:29;;;;;;;3.40;3.10;;;19.50;28.30;;;;;;5088977;28;20232;-53
2020/12/18 02:10:56;;;;;;;2.67;2.47;;;19.50;28.30;;;;;;5073689;28;20193;-53
2020/12/18 02:13:23;;;;;;;3.22;2.13;;;19.50;28.30;;;;;;5073729;28;20196;-52
2020/12/18 02:15:51;;;;;;;2.78;2.58;;;19.50;28.30;;;;;;5055721;28;20163;-52
2020/12/18 02:18:18;;;;;;;2.47;2.20;;;19.50;28.30;;;;;;5073555;28;20237;-53
2020/12/18 02:20:44;;;;;;;2.40;2.20;;;19.50;28.30;;;;;;5074032;28;20244;-53
2020/12/18 02:23:10;;;;;;;2.95;2.75;;;19.50;28.30;;;;;;5073198;28;20162;-53
2020/12/18 02:25:38;;;;;;;2.67;2.47;;;19.50;28.30;;;;;;5073667;28;20166;-53
2020/12/18 02:28:04;;;;;;;2.67;2.42;;;19.50;28.30;;;;;;5073565;28;20158;-53
2020/12/18 02:30:30;;;;;;;2.87;2.67;;;19.50;28.30;;;;;;5055650;28;20204;-53
2020/12/18 02:32:56;;;;;;;3.53;2.50;;;19.50;28.30;;;;;;5073584;28;20166;-53
2020/12/18 02:35:21;;;;;;;2.47;2.05;;;19.50;28.30;;;;;;5055898;28;20234;-53
2020/12/18 02:37:47;;;;;;;2.53;2.33;;;19.50;28.20;;;;;;5073055;28;20528;-53
2020/12/18 02:40:13;;;;;;;3.13;2.40;;;19.50;28.30;;;;;;5073527;28;20154;-53
2020/12/18 02:42:38;;;;;;;2.77;2.57;;;19.50;28.30;;;;;;5073438;28;20241;-53
2020/12/18 02:45:04;;;;;;;2.20;2.03;;;19.50;28.20;;;;;;5073631;28;20208;-51
2020/12/18 02:47:30;;;;;;;2.20;2.10;;;19.50;28.20;;;;;;5055580;28;20626;-52
2020/12/18 02:49:55;;;;;;;3.20;2.90;;;19.50;28.80;;;;;;5055396;28;20197;-52
2020/12/18 02:52:22;;;;;;;2.73;2.03;;;19.50;28.20;;;;;;5072867;28;20165;-52
2020/12/18 02:54:47;;;;;;;2.30;2.10;;;19.50;28.20;;;;;;5073501;28;20150;-52
2020/12/18 02:57:13;;;;;;;2.30;2.10;;;19.50;28.20;;;;;;5073289;28;20161;-53
2020/12/18 02:59:38;;;;;;;3.27;2.00;;;19.50;28.30;;;;;;5073141;28;20155;-52
2020/12/18 03:02:04;;;;;;;2.50;2.30;;;19.50;28.30;;;;;;5073386;28;20154;-52
2020/12/18 03:04:30;;;;;;;2.37;2.17;;;19.50;28.30;;;;;;5073317;28;20496;-52
2020/12/18 03:06:55;;;;;;;2.83;2.20;;;19.50;28.30;;;;;;5072731;28;20162;-52
2020/12/18 03:09:24;;;;;;;2.80;2.60;;;19.50;28.30;;;;;;5073110;28;20166;-53
2020/12/18 03:11:56;;;;;;;2.83;2.63;;;19.50;28.30;;;;;;5073273;28;20151;-53
2020/12/18 03:14:21;;;;;;;2.40;2.20;;;19.50;28.30;;;;;;5073252;28;20151;-52
2020/12/18 03:16:47;;;;;;;2.60;2.40;;;19.50;28.30;;;;;;5073136;28;20193;-53
2020/12/18 03:19:12;;;;;;;3.00;2.43;;;19.50;28.30;;;;;;5088690;28;20629;-52
2020/12/18 03:21:38;;;;;;;2.70;2.37;;;19.40;28.20;;;;;;5073081;28;20157;-52
2020/12/18 03:24:04;;;;;;;2.93;2.73;;;19.40;28.80;;;;;;5075414;28;20154;-52
2020/12/18 03:26:29;;;;;;;2.93;2.63;;;19.40;28.20;;;;;;5076866;28;20154;-52
2020/12/18 03:28:55;;;;;;;2.70;2.50;;;19.40;28.20;;;;;;5076756;28;20678;-52
2020/12/18 03:31:21;;;;;;;2.20;2.10;;;19.40;28.30;;;;;;5076759;28;20182;-52
2020/12/18 03:33:47;;;;;;;2.43;2.23;;;19.40;28.20;;;;;;5058921;28;20154;-53
2020/12/18 03:36:12;;;;;;;3.60;2.27;;;19.50;28.30;;;;;;5076766;28;20229;-53
2020/12/18 03:38:38;;;;;;;2.30;2.10;;;19.40;28.20;;;;;;5091763;28;20185;-53
2020/12/18 03:41:07;;;;;;;3.13;2.93;;;19.50;28.30;;;;;;5076607;28;20625;-53
2020/12/18 03:43:36;;;;;;;2.45;2.25;;;19.40;28.20;;;;;;5076549;28;20380;-53
2020/12/18 03:46:02;;;;;;;2.45;2.25;;;19.40;28.20;;;;;;5076573;28;20180;-53
2020/12/18 03:48:28;;;;;;;3.33;2.57;;;19.40;28.20;;;;;;5076358;28;20170;-52
2020/12/18 03:50:53;;;;;;;2.63;2.37;;;19.40;28.20;;;;;;5076372;28;20246;-53
2020/12/18 03:53:22;;;;;;;2.13;1.93;;;19.40;28.20;;;;;;5076154;28;20191;-53
2020/12/18 03:55:47;;;;;;;2.97;2.50;;;19.40;28.20;;;;;;5091847;28;20257;-52
2020/12/18 03:58:13;;;;;;;2.60;2.40;;;19.50;28.30;;;;;;5076220;28;20257;-52
2020/12/18 04:00:39;;;;;;;2.67;2.47;;;19.40;28.20;;;;;;5076391;28;20181;-51
2020/12/18 04:03:05;;;;;;;3.10;2.80;;;19.40;28.20;;;;;;5058402;28;20162;-52
2020/12/18 04:05:33;;;;;;;2.67;2.47;;;19.40;28.10;;;;;;5076206;28;20666;-52
2020/12/18 04:07:59;;;;;;;2.83;2.58;;;19.50;28.30;;;;;;5075870;28;20663;-52
2020/12/18 04:10:25;;;;;;;2.90;2.63;;;19.40;28.20;;;;;;5075926;28;20796;-52
2020/12/18 04:12:50;;;;;;;2.20;2.03;;;19.40;28.20;;;;;;5076126;28;20169;-51
2020/12/18 04:15:16;;;;;;;2.33;2.13;;;19.40;28.20;;;;;;5076125;28;20922;-52
2020/12/18 04:17:43;;;;;;;2.87;2.57;;;19.40;28.20;;;;;;5075693;28;20214;-52
2020/12/18 04:20:09;;;;;;;3.70;2.88;;;19.40;28.20;;;;;;5075870;28;20143;-52
2020/12/18 04:22:35;;;;;;;2.50;2.30;;;19.40;28.70;;;;;;5075406;28;20679;-52
2020/12/18 04:25:00;;;;;;;2.50;2.30;;;19.40;28.10;;;;;;5057977;28;20154;-52
2020/12/18 04:27:26;;;;;;;2.80;2.50;;;19.40;28.20;;;;;;5057950;28;20167;-52
2020/12/18 04:29:52;;;;;;;2.50;2.30;;;19.40;28.10;;;;;;5075835;28;20213;-52
2020/12/18 04:32:18;;;;;;;2.00;1.80;;;19.50;28.20;;;;;;5075677;28;20186;-52
2020/12/18 04:34:43;;;;;;;2.23;2.03;;;19.40;28.10;;;;;;5074484;28;20329;-52
2020/12/18 04:37:09;;;;;;;2.53;2.30;;;19.50;28.20;;;;;;5075127;28;20155;-56
2020/12/18 04:39:35;;;;;;;2.60;2.40;;;19.40;28.10;;;;;;5075276;28;20509;-52
2020/12/18 04:42:01;;;;;;;2.67;2.47;;;19.40;28.70;;;;;;5090923;28;20171;-53
2020/12/18 04:44:27;;;;;;;3.10;2.53;;;19.40;28.10;;;;;;5091184;28;20173;-52
2020/12/18 04:46:56;;;;;;;2.15;2.00;;;19.40;28.10;;;;;;5075308;28;20431;-52
2020/12/18 04:49:24;;;;;;;2.40;2.20;;;19.40;28.10;;;;;;5075208;28;20253;-52
2020/12/18 04:51:54;;;;;;;2.55;2.35;;;19.50;28.20;;;;;;5090988;28;20167;-52
2020/12/18 04:54:21;;;;;;;2.28;2.08;;;19.40;28.10;;;;;;5075222;28;20170;-53
2020/12/18 04:56:50;;;;;;;2.20;2.00;;;19.40;28.10;;;;;;5075286;28;20147;-52
2020/12/18 04:59:21;;;;;;;2.70;2.50;;;19.50;28.20;;;;;;5075280;28;20159;-52
2020/12/18 05:01:47;;;;;;;1.95;1.75;;;19.40;28.10;;;;;;5075173;28;20180;-52
2020/12/18 05:04:16;;;;;;;2.57;2.37;;;19.40;28.10;;;;;;5075337;28;20556;-53
2020/12/18 05:06:42;;;;;;;2.38;2.17;;;19.40;28.10;;;;;;5074954;28;20155;-53
2020/12/18 05:09:07;;;;;;;3.80;2.30;;;19.40;28.10;;;;;;5089895;28;20173;-51
2020/12/18 05:11:33;;;;;;;3.00;2.80;;;19.50;28.20;;;;;;5056813;28;20549;-52
2020/12/18 05:13:58;;;;;;;2.60;2.40;;;19.50;28.20;;;;;;5074994;28;20185;-52
2020/12/18 05:16:24;;;;;;;2.20;2.00;;;19.40;28.10;;;;;;5056759;28;20637;-52
2020/12/18 05:18:53;;;;;;;2.27;2.07;;;19.50;28.20;;;;;;5074621;28;20214;-53
2020/12/18 05:21:19;;;;;;;2.40;2.20;;;19.50;28.20;;;;;;5074769;28;20162;-53
2020/12/18 05:23:46;;;;;;;2.53;2.00;;;19.50;28.20;;;;;;5073887;28;20192;-52
2020/12/18 05:26:13;;;;;;;1.90;1.80;;;19.50;28.10;;;;;;5074679;28;20178;-52
2020/12/18 05:28:43;;;;;;;2.47;2.28;;;19.50;28.70;;;;;;5074453;28;20166;-52
2020/12/18 05:31:30;;;;;;;2.55;2.35;;;19.50;28.20;;;;;;5074712;28;20186;-54
2020/12/18 05:33:55;;;;;;;2.35;2.15;;;19.50;28.20;;;;;;5074300;28;20178;-53
2020/12/18 05:36:25;;;;;;;2.10;1.83;;;19.50;28.10;;;;;;5039787;28;20210;-53
2020/12/18 05:38:51;;;;;;;2.47;2.28;;;19.50;28.20;;;;;;5073692;28;20197;-53
2020/12/18 05:41:24;;;;;;;2.40;2.20;;;19.50;28.20;;;;;;5089954;28;20621;-52
2020/12/18 05:43:50;;;;;;;2.40;2.20;;;19.50;28.20;;;;;;5074206;28;20411;-52
2020/12/18 05:46:17;;;;;;;2.53;2.30;;;19.50;28.20;;;;;;5073854;28;20163;-52
2020/12/18 05:49:06;;;;;;;2.38;2.17;;;19.50;28.20;;;;;;5073910;28;20166;-52
2020/12/18 05:51:37;;;;;;;2.42;2.22;;;19.50;28.20;;;;;;5073962;28;20209;-52
2020/12/18 05:54:16;;;;;;;2.00;1.90;;;19.50;28.20;;;;;;5073471;28;20200;-53
2020/12/18 05:56:44;;;;;;;2.88;2.50;;;19.50;28.20;;;;;;5074032;28;20150;-53
2020/12/18 05:59:18;;;;;;;2.47;2.10;;;19.50;28.20;;;;;;5073964;28;20147;-53
2020/12/18 06:01:54;;;;;;;3.20;2.10;;;19.50;28.10;;;;;;5056440;28;20167;-53
2020/12/18 06:04:23;;;;;;;3.42;2.20;;;19.50;28.20;;;;;;5073954;28;20158;-53
2020/12/18 06:06:50;;;;;;;2.63;2.42;;;19.50;28.10;;;;;;5089573;28;20186;-52
2020/12/18 06:09:18;;;;;;;3.60;3.30;;;19.50;28.10;;;;;;5073665;28;20159;-52
2020/12/18 06:11:44;;;;;;;3.60;2.20;;;19.50;28.10;;;;;;5073663;28;20605;-52
2020/12/18 06:14:13;;;;;;;2.65;2.33;;;19.50;28.10;;;;;;5073959;28;20181;-52
2020/12/18 06:16:44;;;;;;;2.42;2.22;;;19.50;28.10;;;;;;5073539;28;20170;-52
2020/12/18 06:19:12;;;;;;;2.28;2.03;;;19.60;28.10;;;;;;5073602;28;20158;-52
2020/12/18 06:21:38;;;;;;;2.75;2.40;;;19.50;28.10;;;;;;5073506;28;20651;-52
2020/12/18 06:24:04;;;;;;;2.30;2.10;;;19.60;28.10;;;;;;5073117;28;20159;-52
2020/12/18 06:26:31;;;;;;;2.80;2.60;;;19.60;28.10;;;;;;5055706;28;20412;-52
2020/12/18 06:29:05;;;;;;;2.60;2.40;;;19.60;28.10;;;;;;5089014;28;20159;-52
2020/12/18 06:31:32;;;;;;;2.25;2.05;;;19.60;28.10;;;;;;5073353;28;20695;-52
2020/12/18 06:34:04;;;;;;;2.25;2.05;;;19.60;28.00;;;;;;5073286;28;20185;-52
2020/12/18 06:36:48;;;;;;;2.00;1.90;;;19.60;28.00;;;;;;5073159;28;20149;-53
2020/12/18 06:39:25;;;;;;;2.42;2.22;;;19.60;28.00;;;;;;5072936;28;20143;-53
2020/12/18 06:42:14;;;;;;;2.03;1.70;;;19.60;28.00;;;;;;5073252;28;20153;-52
2020/12/18 06:45:02;;;;;;;2.65;2.03;;;19.60;28.00;;;;;;5073410;28;20182;-52
2020/12/18 06:47:30;;;;;;;2.50;2.15;;;19.60;27.90;;;;;;5088736;28;20173;-52
2020/12/18 06:49:58;;;;;;;2.40;2.20;;;19.60;27.90;;;;;;5072985;28;20259;-53
2020/12/18 06:52:38;;;;;;;2.63;2.42;;;19.60;27.90;;;;;;5072831;28;20150;-53
2020/12/18 06:55:06;;;;;;;2.60;2.40;;;19.60;27.90;;;;;;5073247;28;20256;-53
2020/12/18 06:57:31;;;;;;;2.22;2.05;;;19.60;27.90;;;;;;5073711;28;20605;-55
2020/12/18 07:00:30;;;;;;;2.00;1.90;;;19.70;27.90;;;;;;5059507;28;20185;-53
2020/12/18 07:02:57;;;;;;;3.30;3.00;;;19.60;27.80;;;;;;5043921;28;20633;-53
2020/12/18 07:05:43;;;;;;;2.20;2.00;;;19.60;27.80;;;;;;5042227;28;20174;-53
2020/12/18 07:08:13;;;;;;;2.08;1.90;;;19.70;27.90;;;;;;5042082;28;20174;-53
2020/12/18 07:10:43;;;;;;;2.08;1.98;;;19.70;27.90;;;;;;5076815;28;20198;-53
2020/12/18 07:13:12;;;;;;;2.50;2.30;;;19.70;27.90;;;;;;5076960;28;20158;-53
2020/12/18 07:15:47;;;;;;;1.77;1.67;;;19.70;27.90;;;;;;5076889;28;20167;-53
2020/12/18 07:18:33;;;;;;;6.75;6.00;;;19.70;27.90;;;;;;5073847;28;20209;-49
2020/12/18 07:21:10;;;;;;;8.52;7.72;;;18.80;23.60;;;;;;5069046;28;20204;-51
2020/12/18 07:23:47;;;;;;;7.70;6.97;;;17.70;23.60;;;;;;5072183;28;20174;-54
2020/12/18 07:26:14;;;;;;;6.45;5.75;;;17.00;27.30;;;;;;5075771;28;20615;-54
2020/12/18 07:28:41;;;;;;;7.35;6.28;;;17.00;28.70;;;;;;5075917;28;20151;-54
2020/12/18 07:31:24;;;;;;;7.00;6.30;;;17.20;29.90;;;;;;5076418;28;20218;-54
2020/12/18 07:33:54;;;;;;;6.80;6.20;;;17.30;29.80;;;;;;5059118;28;20166;-53
2020/12/18 07:36:20;;;;;;;7.47;6.50;;;17.50;29.50;;;;;;5064434;28;20197;-56
2020/12/18 07:38:46;;;;;;;7.60;7.00;;;17.70;29.00;;;;;;5066183;28;20388;-55
2020/12/18 07:41:16;;;;;;;6.70;6.20;;;17.90;28.60;;;;;;5068800;28;20265;-55
2020/12/18 07:43:46;;;;;;;7.60;6.90;;;18.00;28.20;;;;;;5074182;28;20166;-55
2020/12/18 07:46:17;;;;;;;6.95;6.35;;;18.10;27.70;;;;;;5057446;28;20189;-54
2020/12/18 07:48:43;;;;;;;7.88;6.65;;;18.20;27.20;;;;;;5074709;28;20158;-55
2020/12/18 07:51:19;;;;;;;7.00;6.30;;;18.30;26.90;;;;;;5075605;28;20641;-53
2020/12/18 07:53:53;;;;;;;7.10;6.40;;;18.40;27.00;;;;;;5040311;28;20659;-54
2020/12/18 07:56:19;;;;;;;11.07;6.28;;;18.50;26.20;;;;;;5075897;28;20154;-53
2020/12/18 07:58:48;;;;;;;9.07;7.07;;;18.60;26.10;;;;;;5047942;28;20525;-53
2020/12/18 08:01:34;;;;;;;5.25;4.80;;;18.70;26.00;;;;;;5002973;28;20694;-53
2020/12/18 08:04:08;;;;;;;5.15;4.75;;;18.80;26.00;;;;;;5039676;28;20653;-52
2020/12/18 08:06:37;;;;;;;6.15;5.47;;;18.90;26.00;;;;;;5050241;28;20548;-53
2020/12/18 08:09:09;;;;;;;11.77;5.95;;;19.00;25.90;;;;;;5019586;28;20270;-53
2020/12/18 08:11:37;;;;;;;6.63;5.30;;;19.10;25.40;;;;;;5041742;28;20230;-52
2020/12/18 08:14:05;;;;;;;5.28;4.78;;;19.20;26.00;;;;;;5031927;28;20174;-52
2020/12/18 08:16:32;;;;;;;5.45;4.90;;;19.30;25.60;;;;;;5041728;28;20189;-51
2020/12/18 08:19:09;;;;;;;5.10;4.70;;;19.30;26.00;;;;;;5024281;28;20215;-51
2020/12/18 08:21:40;;;;;;;5.70;5.20;;;19.40;26.00;;;;;;5030059;28;20170;-51
2020/12/18 08:24:34;;;;;;;4.68;4.28;;;19.50;26.00;;;;;;5021566;28;20186;-52
2020/12/18 08:27:10;;;;;;;4.40;4.00;;;19.50;26.00;;;;;;5035495;28;20199;-52
2020/12/18 08:29:37;;;;;;;4.25;3.85;;;19.60;25.80;;;;;;5006669;28;20561;-53
2020/12/18 08:32:05;;;;;;;4.38;3.97;;;19.70;25.80;;;;;;5023913;28;20167;-53
2020/12/18 08:34:33;;;;;;;4.00;3.70;;;19.70;25.70;;;;;;5027067;28;20174;-52
2020/12/18 08:37:00;;;;;;;4.53;4.15;;;19.80;25.90;;;;;;5022911;28;20214;-51
2020/12/18 08:39:31;;;;;;;6.90;4.32;;;19.80;25.80;;;;;;5016173;28;20182;-51
2020/12/18 08:41:57;;;;;;;5.68;4.10;;;19.90;25.80;;;;;;5020598;28;20264;-51
2020/12/18 08:44:28;;;;;;;6.55;4.20;;;19.90;25.60;;;;;;5027365;28;20175;-52
2020/12/18 08:46:55;;;;;;;7.75;4.20;;;19.90;26.10;;;;;;5021248;28;20186;-52
2020/12/18 08:49:24;;;;;;;4.20;3.85;;;20.00;26.30;;;;;;5017623;28;20174;-53
2020/12/18 08:51:53;;;;;;;7.40;4.28;;;20.00;26.40;;;;;;5019687;28;20178;-52
2020/12/18 08:54:39;;;;;;;5.85;3.80;;;20.00;26.30;;;;;;5031813;28;20178;-50
2020/12/18 08:57:14;;;;;;;5.03;3.78;;;20.00;26.20;;;;;;5016624;28;20209;-51
2020/12/18 08:59:53;;;;;;;6.07;4.00;;;20.00;26.10;;;;;;5010024;28;20210;-51
2020/12/18 09:02:19;;;;;;;7.78;3.45;;;20.10;26.00;;;;;;5007818;28;20360;-51
2020/12/18 09:04:45;;;;;;;6.07;3.80;;;20.10;26.00;;;;;;5029772;28;20541;-53
2020/12/18 09:07:11;;;;;;;4.37;3.70;;;20.10;26.20;;;;;;5006999;28;20191;-52
2020/12/18 09:09:52;;;;;;;5.70;3.40;;;20.20;26.60;;;;;;5006513;28;20171;-52
2020/12/18 09:12:17;;;;;;;7.03;3.75;;;20.20;26.60;;;;;;5020899;28;20550;-53
2020/12/18 09:14:43;;;;;;;4.53;3.80;;;20.20;26.80;;;;;;5027623;28;20171;-53
2020/12/18 09:17:08;;;;;;;4.80;3.93;;;20.20;26.70;;;;;;5022416;28;20253;-53
2020/12/18 09:19:44;;;;;;;6.23;3.73;;;20.30;26.80;;;;;;5036927;28;20182;-51
2020/12/18 09:22:09;;;;;;;7.22;3.40;;;20.30;26.80;;;;;;5025455;28;20174;-52
2020/12/18 09:24:35;;;;;;;9.10;3.80;;;20.30;26.80;;;;;;5042236;28;20193;-52
2020/12/18 09:27:09;;;;;;;5.07;3.50;;;20.30;26.70;;;;;;5040568;28;20704;-53
2020/12/18 09:29:36;;;;;;;3.42;3.17;;;20.40;26.80;;;;;;5000295;28;20190;-52
2020/12/18 09:32:02;;;;;;;4.13;3.72;;;20.40;26.70;;;;;;5023867;28;20738;-54
2020/12/18 09:34:29;;;;;;;8.63;3.85;;;20.40;26.80;;;;;;5031692;28;20641;-54
2020/12/18 09:36:55;;;;;;;8.90;3.72;;;20.40;26.80;;;;;;5041509;28;20154;-53
2020/12/18 09:39:21;;;;;;;4.70;3.57;;;20.40;26.90;;;;;;5014904;28;21515;-53
2020/12/18 09:41:47;;;;;;;3.80;3.50;;;20.50;26.90;;;;;;5009423;28;20197;-53
2020/12/18 09:44:12;;;;;;;5.70;3.60;;;20.50;26.90;;;;;;5044490;28;20621;-52
2020/12/18 09:46:38;;;;;;;5.07;3.43;;;20.50;26.90;;;;;;5028127;28;20174;-52
2020/12/18 09:49:04;;;;;;;3.60;3.30;;;20.50;26.90;;;;;;5042995;28;20239;-52
2020/12/18 09:51:29;;;;;;;6.87;3.20;;;20.20;26.80;;;;;;5016072;28;20292;-51
2020/12/18 09:53:58;;;;;;;4.70;3.60;;;20.50;27.00;;;;;;5041891;28;20196;-51
2020/12/18 09:56:24;;;;;;;6.68;3.15;;;20.50;27.00;;;;;;5039904;28;20201;-52
2020/12/18 09:58:52;;;;;;;3.00;2.80;;;20.50;26.90;;;;;;5032346;28;20174;-53
2020/12/18 10:01:20;;;;;;;3.90;2.97;;;20.60;26.90;;;;;;5019754;28;20440;-53
2020/12/18 10:03:46;;;;;;;3.97;3.55;;;20.60;26.90;;;;;;5024036;28;20179;-52
2020/12/18 10:06:12;;;;;;;4.00;3.23;;;20.60;26.90;;;;;;5016476;28;21445;-52
2020/12/18 10:08:37;;;;;;;7.60;3.47;;;20.60;26.90;;;;;;5022561;28;20444;-53
2020/12/18 10:11:03;;;;;;;3.60;3.13;;;20.60;26.90;;;;;;5015325;28;20617;-52
2020/12/18 10:13:29;;;;;;;4.00;3.57;;;20.60;26.90;;;;;;5035617;28;20254;-55
2020/12/18 10:15:55;;;;;;;3.40;3.10;;;20.60;27.00;;;;;;4979278;28;20522;-54
2020/12/18 10:18:21;;;;;;;3.67;3.37;;;20.60;27.10;;;;;;4997491;28;20292;-53
2020/12/18 10:20:46;;;;;;;5.83;3.40;;;20.60;27.00;;;;;;4981886;28;20789;-55
2020/12/18 10:23:12;;;;;;;4.20;3.80;;;20.60;27.00;;;;;;4992771;28;20167;-53
2020/12/18 10:25:38;;;;;;;3.70;3.40;;;20.60;27.10;;;;;;4995169;28;20696;-53
2020/12/18 10:28:04;;;;;;;3.93;3.33;;;20.60;27.00;;;;;;4995404;28;20183;-53
2020/12/18 10:30:30;;;;;;;4.43;3.43;;;20.60;27.10;;;;;;4960110;28;20937;-56
2020/12/18 10:32:55;;;;;;;3.00;2.70;;;20.60;27.10;;;;;;4995191;28;20955;-56
2020/12/18 10:35:21;;;;;;;7.83;3.73;;;20.60;27.10;;;;;;5010290;28;20195;-53
2020/12/18 10:37:47;;;;;;;4.60;3.20;;;20.60;27.10;;;;;;4995282;28;20655;-51
2020/12/18 10:40:14;;;;;;;10.00;3.35;;;20.70;27.20;;;;;;4978009;28;20192;-52
2020/12/18 10:42:41;;;;;;;5.20;3.55;;;20.70;27.20;;;;;;5000858;28;20168;-53
2020/12/18 10:45:07;;;;;;;3.30;3.05;;;20.70;27.30;;;;;;4989150;28;21141;-54
2020/12/18 10:47:32;;;;;;;3.23;2.93;;;21.10;27.50;;;;;;4992299;28;20701;-52
2020/12/18 10:49:58;;;;;;;3.97;3.17;;;20.70;27.30;;;;;;4980940;28;20433;-52
2020/12/18 10:52:24;;;;;;;3.20;2.77;;;20.70;27.20;;;;;;4992197;28;21070;-56
2020/12/18 10:54:52;;;;;;;4.25;3.33;;;20.70;27.30;;;;;;5005513;28;20171;-53
2020/12/18 10:57:18;;;;;;;4.88;3.28;;;20.70;27.30;;;;;;4986360;28;20228;-53
2020/12/18 10:59:44;;;;;;;3.97;3.25;;;20.70;26.60;;;;;;4978328;28;21340;-54
2020/12/18 11:02:10;;;;;;;4.60;3.60;;;20.70;27.60;;;;;;4995731;28;20681;-53
2020/12/18 11:04:36;;;;;;;3.85;3.45;;;20.70;27.10;;;;;;4986717;28;20434;-53
2020/12/18 11:07:02;;;;;;;2.80;2.60;;;20.70;27.20;;;;;;5001868;28;20261;-52
2020/12/18 11:09:28;;;;;;;4.80;3.60;;;20.70;27.20;;;;;;4989367;28;20640;-52
2020/12/18 11:11:57;;;;;;;3.80;3.30;;;20.70;27.30;;;;;;5005171;28;20811;-52
2020/12/18 11:14:23;;;;;;;4.30;3.90;;;20.80;27.40;;;;;;4994571;28;20167;-52
2020/12/18 11:16:49;;;;;;;3.85;3.40;;;20.80;27.40;;;;;;5012768;28;20164;-53
2020/12/18 11:19:16;;;;;;;4.03;3.00;;;20.80;27.40;;;;;;5011928;28;20206;-53
2020/12/18 11:21:46;;;;;;;4.03;3.30;;;20.80;27.40;;;;;;5037796;28;20182;-54
2020/12/18 11:24:11;;;;;;;3.53;3.33;;;20.20;27.00;;;;;;5033811;28;20174;-53
2020/12/18 11:26:37;;;;;;;7.37;3.80;;;20.80;27.20;;;;;;5029483;28;20201;-63
2020/12/18 11:29:04;;;;;;;4.88;4.35;;;20.80;27.10;;;;;;5022105;28;20257;-56
2020/12/18 11:31:30;;;;;;;6.18;3.10;;;20.80;27.30;;;;;;5026146;28;20227;-54
2020/12/18 11:33:57;;;;;;;3.53;3.22;;;20.80;27.50;;;;;;5028809;28;20203;-54
2020/12/18 11:36:23;;;;;;;5.47;3.05;;;20.80;27.70;;;;;;5034442;28;20175;-54
2020/12/18 11:38:48;;;;;;;3.53;3.22;;;20.80;27.90;;;;;;5036710;28;20178;-54
2020/12/18 11:41:21;;;;;;;6.00;3.17;;;20.80;27.90;;;;;;5001750;28;20688;-56
2020/12/18 11:43:52;;;;;;;4.30;3.20;;;20.80;27.90;;;;;;5028603;28;20182;-53
2020/12/18 11:46:18;;;;;;;6.05;3.78;;;20.80;28.00;;;;;;5023558;28;20170;-52
2020/12/18 11:48:44;;;;;;;5.57;2.97;;;20.80;28.00;;;;;;5036078;28;20190;-55
2020/12/18 11:51:09;;;;;;;6.40;3.80;;;20.80;27.60;;;;;;5019029;28;20202;-54
2020/12/18 11:53:36;;;;;;;8.00;4.17;;;20.80;27.70;;;;;;5040255;28;20618;-54
2020/12/18 11:56:03;;;;;;;3.72;3.15;;;20.80;27.70;;;;;;5037724;28;20158;-55
2020/12/18 11:58:29;;;;;;;3.58;3.28;;;20.80;27.70;;;;;;5036521;28;20171;-54
2020/12/18 12:00:56;;;;;;;4.07;3.20;;;20.80;27.80;;;;;;4997170;28;20179;-54
2020/12/18 12:03:23;;;;;;;4.60;2.90;;;20.80;27.90;;;;;;5039378;28;20173;-54
2020/12/18 12:05:49;;;;;;;3.78;2.67;;;20.80;27.90;;;;;;5036404;28;20209;-52
2020/12/18 12:08:14;;;;;;;5.03;3.47;;;20.80;27.80;;;;;;5013263;28;20277;-56
2020/12/18 12:10:40;;;;;;;6.03;2.87;;;20.80;27.60;;;;;;4996585;28;21104;-55
2020/12/18 12:13:06;;;;;;;4.03;3.65;;;20.80;27.70;;;;;;5034514;28;20178;-54
2020/12/18 12:15:32;;;;;;;5.53;3.00;;;20.90;27.90;;;;;;5034973;28;20163;-54
2020/12/18 12:17:57;;;;;;;3.67;2.90;;;20.90;27.90;;;;;;5019157;28;20222;-55
2020/12/18 12:20:23;;;;;;;3.60;3.27;;;20.90;27.90;;;;;;4999797;28;20155;-54
2020/12/18 12:22:49;;;;;;;3.77;3.40;;;20.90;28.00;;;;;;5013166;28;20175;-55
2020/12/18 12:25:15;;;;;;;3.83;3.40;;;20.90;28.00;;;;;;5011783;28;20197;-54
2020/12/18 12:27:40;;;;;;;3.47;3.20;;;20.90;28.00;;;;;;5016494;28;20202;-55
2020/12/18 12:30:09;;;;;;;4.77;3.37;;;20.90;28.00;;;;;;4989931;28;20677;-55
2020/12/18 12:32:35;;;;;;;3.75;2.97;;;20.90;28.00;;;;;;5019321;28;20689;-55
2020/12/18 12:35:01;;;;;;;4.20;3.07;;;20.90;28.00;;;;;;5007383;28;20573;-55
2020/12/18 12:37:26;;;;;;;3.30;3.00;;;20.90;28.00;;;;;;5016509;28;20190;-54
2020/12/18 12:39:52;;;;;;;2.97;2.77;;;20.90;27.90;;;;;;4993178;28;20451;-55
2020/12/18 12:42:18;;;;;;;3.50;2.90;;;20.90;27.80;;;;;;5006900;28;20545;-53
2020/12/18 12:44:44;;;;;;;4.20;2.47;;;20.90;27.80;;;;;;5008904;28;20266;-54
2020/12/18 12:47:09;;;;;;;5.50;4.23;;;20.90;27.90;;;;;;5016880;28;20301;-54
2020/12/18 12:49:35;;;;;;;5.10;3.43;;;20.90;27.70;;;;;;4998681;28;20671;-53